Ro Fjord — LFEI — position and weather

sailwx.info

Track history (hours):
 
Tides and Currents Weather Stations Pressure Air Temp Water Temp Dewpoint Dewpoint Depression Visibility Wind Speed Wind Dir Waves Ship Positions

Ro Fjord

Last reported at 2015-Mar-28 21:33 UTC. Time now 2015-Mar-28 22:15 UTC.
Position N 59°10' E 005°21'.

Length 72 m; draft 6.4 m.

Type: Cargo ship. MMSI: 257430000.

Date/timePositionNaut miles runAvg speedWind from/ knotsBaromVisibWave heightAir tempDewpointWater temp
2015-Mar-28 21:33N 59°10' E 005°21'8 7.5
2015-Mar-28 20:32N 59°12' E 005°36'9 9.2
2015-Mar-28 19:33N 59°18' E 005°49'8 8.1
2015-Mar-28 18:33N 59°26' E 005°54'4 1.6
2015-Mar-28 16:22N 59°28' E 005°59'810.0
2015-Mar-28 15:33N 59°21' E 005°54'1212.0
2015-Mar-28 14:33N 59°12' E 005°37'9 8.8
2015-Mar-28 13:33N 59°10' E 005°20'19 9.2
2015-Mar-28 11:29N 59°29' E 005°13'  
Track history (hours):
 
Tides and Currents Weather Stations Pressure Air Temp Water Temp Dewpoint Dewpoint Depression Visibility Wind Speed Wind Dir Waves Ship Positions

Ro Fjord

Last reported at 2015-Mar-28 21:33 UTC. Time now 2015-Mar-28 22:15 UTC.
Position N 59°10' E 005°21'.

Length 72 m; draft 6.4 m.

Type: Cargo ship. MMSI: 257430000.

Date/timePositionNaut miles runAvg speedWind from/ knotsBaromVisibWave heightAir tempDewpointWater temp
2015-Mar-28 21:33N 59°10' E 005°21'8 7.5
2015-Mar-28 20:32N 59°12' E 005°36'9 9.2
2015-Mar-28 19:33N 59°18' E 005°49'8 8.1
2015-Mar-28 18:33N 59°26' E 005°54'4 1.6
2015-Mar-28 16:22N 59°28' E 005°59'810.0
2015-Mar-28 15:33N 59°21' E 005°54'1212.0
2015-Mar-28 14:33N 59°12' E 005°37'9 8.8
2015-Mar-28 13:33N 59°10' E 005°20'19 9.2
2015-Mar-28 11:29N 59°29' E 005°13'  

Dump ship's entire track history